sensor_id;sensor_type;location;lat;lon;timestamp;P1;durP1;ratioP1;P2;durP2;ratioP2
5379;SDS011;2713;42.680;23.310;2022-07-12T00:01:51;4.97;;;4.67;;
5379;SDS011;2713;42.680;23.310;2022-07-12T00:04:19;4.67;;;4.37;;
5379;SDS011;2713;42.680;23.310;2022-07-12T00:06:46;4.77;;;4.37;;
5379;SDS011;2713;42.680;23.310;2022-07-12T00:09:13;4.60;;;4.20;;
5379;SDS011;2713;42.680;23.310;2022-07-12T00:11:41;4.20;;;4.00;;
5379;SDS011;2713;42.680;23.310;2022-07-12T00:14:08;4.10;;;3.80;;
5379;SDS011;2713;42.680;23.310;2022-07-12T00:16:35;4.63;;;4.30;;
5379;SDS011;2713;42.680;23.310;2022-07-12T00:19:03;4.20;;;3.90;;
5379;SDS011;2713;42.680;23.310;2022-07-12T00:21:32;7.37;;;3.90;;
5379;SDS011;2713;42.680;23.310;2022-07-12T00:23:59;4.33;;;4.00;;
5379;SDS011;2713;42.680;23.310;2022-07-12T00:26:26;3.47;;;3.13;;
5379;SDS011;2713;42.680;23.310;2022-07-12T00:28:54;3.67;;;3.40;;
5379;SDS011;2713;42.680;23.310;2022-07-12T00:31:21;3.70;;;3.40;;
5379;SDS011;2713;42.680;23.310;2022-07-12T00:33:48;3.30;;;3.10;;
5379;SDS011;2713;42.680;23.310;2022-07-12T00:36:15;3.40;;;3.00;;
5379;SDS011;2713;42.680;23.310;2022-07-12T00:38:44;3.50;;;3.27;;
5379;SDS011;2713;42.680;23.310;2022-07-12T00:41:11;2.87;;;2.77;;
5379;SDS011;2713;42.680;23.310;2022-07-12T00:43:38;3.27;;;2.97;;
5379;SDS011;2713;42.680;23.310;2022-07-12T00:46:05;3.40;;;3.20;;
5379;SDS011;2713;42.680;23.310;2022-07-12T00:48:33;3.00;;;2.80;;
5379;SDS011;2713;42.680;23.310;2022-07-12T00:51:00;3.00;;;2.80;;
5379;SDS011;2713;42.680;23.310;2022-07-12T00:53:27;3.63;;;3.33;;
5379;SDS011;2713;42.680;23.310;2022-07-12T00:55:56;3.07;;;2.97;;
5379;SDS011;2713;42.680;23.310;2022-07-12T00:58:24;3.40;;;3.20;;
5379;SDS011;2713;42.680;23.310;2022-07-12T01:00:53;3.00;;;2.80;;
5379;SDS011;2713;42.680;23.310;2022-07-12T01:03:21;3.67;;;3.40;;
5379;SDS011;2713;42.680;23.310;2022-07-12T01:05:49;3.30;;;3.10;;
5379;SDS011;2713;42.680;23.310;2022-07-12T01:08:16;3.23;;;2.93;;
5379;SDS011;2713;42.680;23.310;2022-07-12T01:10:43;3.20;;;2.90;;
5379;SDS011;2713;42.680;23.310;2022-07-12T01:13:13;3.27;;;3.07;;
5379;SDS011;2713;42.680;23.310;2022-07-12T01:15:40;4.57;;;3.10;;
5379;SDS011;2713;42.680;23.310;2022-07-12T01:18:07;3.07;;;2.87;;
5379;SDS011;2713;42.680;23.310;2022-07-12T01:20:36;3.10;;;2.90;;
5379;SDS011;2713;42.680;23.310;2022-07-12T01:23:05;3.10;;;2.80;;
5379;SDS011;2713;42.680;23.310;2022-07-12T01:25:34;4.27;;;3.30;;
5379;SDS011;2713;42.680;23.310;2022-07-12T01:28:01;5.63;;;2.70;;
5379;SDS011;2713;42.680;23.310;2022-07-12T01:30:29;3.00;;;2.80;;
5379;SDS011;2713;42.680;23.310;2022-07-12T01:32:56;3.10;;;2.90;;
5379;SDS011;2713;42.680;23.310;2022-07-12T01:35:26;4.70;;;2.97;;
5379;SDS011;2713;42.680;23.310;2022-07-12T01:37:54;3.40;;;3.13;;
5379;SDS011;2713;42.680;23.310;2022-07-12T01:40:24;3.33;;;3.03;;
5379;SDS011;2713;42.680;23.310;2022-07-12T01:42:52;4.93;;;2.73;;
5379;SDS011;2713;42.680;23.310;2022-07-12T01:45:20;4.90;;;2.80;;
5379;SDS011;2713;42.680;23.310;2022-07-12T01:47:47;4.20;;;3.20;;
5379;SDS011;2713;42.680;23.310;2022-07-12T01:50:14;3.17;;;2.87;;
5379;SDS011;2713;42.680;23.310;2022-07-12T01:52:42;4.60;;;2.90;;
5379;SDS011;2713;42.680;23.310;2022-07-12T01:55:10;4.80;;;3.10;;
5379;SDS011;2713;42.680;23.310;2022-07-12T01:57:39;3.37;;;3.10;;
5379;SDS011;2713;42.680;23.310;2022-07-12T02:00:08;3.97;;;3.60;;
5379;SDS011;2713;42.680;23.310;2022-07-12T02:02:36;5.30;;;4.27;;
5379;SDS011;2713;42.680;23.310;2022-07-12T02:05:04;4.53;;;4.13;;
5379;SDS011;2713;42.680;23.310;2022-07-12T02:07:31;4.93;;;4.63;;
5379;SDS011;2713;42.680;23.310;2022-07-12T02:09:58;6.17;;;5.57;;
5379;SDS011;2713;42.680;23.310;2022-07-12T02:12:25;4.90;;;4.60;;
5379;SDS011;2713;42.680;23.310;2022-07-12T02:14:54;5.50;;;5.10;;
5379;SDS011;2713;42.680;23.310;2022-07-12T02:17:21;5.13;;;4.73;;
5379;SDS011;2713;42.680;23.310;2022-07-12T02:19:48;5.27;;;4.90;;
5379;SDS011;2713;42.680;23.310;2022-07-12T02:22:15;5.83;;;5.20;;
5379;SDS011;2713;42.680;23.310;2022-07-12T02:24:42;4.90;;;4.60;;
5379;SDS011;2713;42.680;23.310;2022-07-12T02:27:09;5.60;;;5.10;;
5379;SDS011;2713;42.680;23.310;2022-07-12T02:29:36;5.10;;;4.70;;
5379;SDS011;2713;42.680;23.310;2022-07-12T02:32:05;5.20;;;4.80;;
5379;SDS011;2713;42.680;23.310;2022-07-12T02:34:32;4.60;;;4.30;;
5379;SDS011;2713;42.680;23.310;2022-07-12T02:36:59;5.57;;;5.07;;
5379;SDS011;2713;42.680;23.310;2022-07-12T02:39:26;4.70;;;4.30;;
5379;SDS011;2713;42.680;23.310;2022-07-12T02:41:53;5.73;;;5.03;;
5379;SDS011;2713;42.680;23.310;2022-07-12T02:44:21;5.23;;;4.83;;
5379;SDS011;2713;42.680;23.310;2022-07-12T02:46:48;5.13;;;4.73;;
5379;SDS011;2713;42.680;23.310;2022-07-12T02:49:16;5.40;;;4.90;;
5379;SDS011;2713;42.680;23.310;2022-07-12T02:51:43;5.30;;;4.80;;
5379;SDS011;2713;42.680;23.310;2022-07-12T02:54:10;5.80;;;5.30;;
5379;SDS011;2713;42.680;23.310;2022-07-12T02:56:37;6.03;;;5.53;;
5379;SDS011;2713;42.680;23.310;2022-07-12T02:59:04;5.63;;;5.23;;
5379;SDS011;2713;42.680;23.310;2022-07-12T03:01:31;7.27;;;5.70;;
5379;SDS011;2713;42.680;23.310;2022-07-12T03:03:58;5.23;;;4.90;;
5379;SDS011;2713;42.680;23.310;2022-07-12T03:06:27;8.80;;;5.17;;
5379;SDS011;2713;42.680;23.310;2022-07-12T03:08:54;5.80;;;5.40;;
5379;SDS011;2713;42.680;23.310;2022-07-12T03:11:21;6.23;;;5.73;;
5379;SDS011;2713;42.680;23.310;2022-07-12T03:13:48;6.20;;;5.40;;
5379;SDS011;2713;42.680;23.310;2022-07-12T03:16:15;6.10;;;5.60;;
5379;SDS011;2713;42.680;23.310;2022-07-12T03:18:42;6.10;;;5.70;;
5379;SDS011;2713;42.680;23.310;2022-07-12T03:21:09;6.27;;;5.77;;
5379;SDS011;2713;42.680;23.310;2022-07-12T03:23:38;6.10;;;5.60;;
5379;SDS011;2713;42.680;23.310;2022-07-12T03:26:06;5.60;;;5.20;;
5379;SDS011;2713;42.680;23.310;2022-07-12T03:28:33;7.07;;;5.77;;
5379;SDS011;2713;42.680;23.310;2022-07-12T03:31:00;6.70;;;6.00;;
5379;SDS011;2713;42.680;23.310;2022-07-12T03:33:27;6.53;;;6.13;;
5379;SDS011;2713;42.680;23.310;2022-07-12T03:35:54;6.17;;;5.57;;
5379;SDS011;2713;42.680;23.310;2022-07-12T03:38:21;6.87;;;6.10;;
5379;SDS011;2713;42.680;23.310;2022-07-12T03:40:50;5.80;;;5.27;;
5379;SDS011;2713;42.680;23.310;2022-07-12T03:43:17;6.70;;;5.70;;
5379;SDS011;2713;42.680;23.310;2022-07-12T03:45:43;6.00;;;5.50;;
5379;SDS011;2713;42.680;23.310;2022-07-12T03:48:11;7.50;;;5.80;;
5379;SDS011;2713;42.680;23.310;2022-07-12T03:50:37;6.07;;;5.53;;
5379;SDS011;2713;42.680;23.310;2022-07-12T03:53:05;6.50;;;5.90;;
5379;SDS011;2713;42.680;23.310;2022-07-12T03:55:32;7.13;;;5.93;;
5379;SDS011;2713;42.680;23.310;2022-07-12T03:58:00;6.43;;;5.93;;
5379;SDS011;2713;42.680;23.310;2022-07-12T04:00:27;6.07;;;5.57;;
5379;SDS011;2713;42.680;23.310;2022-07-12T04:02:54;6.53;;;5.77;;
5379;SDS011;2713;42.680;23.310;2022-07-12T04:05:21;6.60;;;6.00;;
5379;SDS011;2713;42.680;23.310;2022-07-12T04:07:51;7.33;;;6.60;;
5379;SDS011;2713;42.680;23.310;2022-07-12T04:10:19;6.90;;;6.20;;
5379;SDS011;2713;42.680;23.310;2022-07-12T04:12:47;6.00;;;5.50;;
5379;SDS011;2713;42.680;23.310;2022-07-12T04:15:15;6.13;;;5.13;;
5379;SDS011;2713;42.680;23.310;2022-07-12T04:17:42;6.63;;;5.03;;
5379;SDS011;2713;42.680;23.310;2022-07-12T04:20:09;7.83;;;5.97;;
5379;SDS011;2713;42.680;23.310;2022-07-12T04:22:37;6.33;;;5.70;;
5379;SDS011;2713;42.680;23.310;2022-07-12T04:25:05;6.07;;;5.53;;
5379;SDS011;2713;42.680;23.310;2022-07-12T04:27:33;5.57;;;5.17;;
5379;SDS011;2713;42.680;23.310;2022-07-12T04:30:00;6.60;;;5.33;;
5379;SDS011;2713;42.680;23.310;2022-07-12T04:32:28;7.13;;;4.93;;
5379;SDS011;2713;42.680;23.310;2022-07-12T04:34:56;7.47;;;5.50;;
5379;SDS011;2713;42.680;23.310;2022-07-12T04:37:22;6.43;;;5.37;;
5379;SDS011;2713;42.680;23.310;2022-07-12T04:39:50;5.83;;;5.33;;
5379;SDS011;2713;42.680;23.310;2022-07-12T04:42:16;7.93;;;5.90;;
5379;SDS011;2713;42.680;23.310;2022-07-12T04:44:43;18.57;;;7.30;;
5379;SDS011;2713;42.680;23.310;2022-07-12T04:47:10;7.53;;;5.90;;
5379;SDS011;2713;42.680;23.310;2022-07-12T04:49:39;7.43;;;6.00;;
5379;SDS011;2713;42.680;23.310;2022-07-12T04:52:06;8.83;;;6.47;;
5379;SDS011;2713;42.680;23.310;2022-07-12T04:54:33;7.90;;;5.43;;
5379;SDS011;2713;42.680;23.310;2022-07-12T04:57:00;6.90;;;5.43;;
5379;SDS011;2713;42.680;23.310;2022-07-12T04:59:27;7.13;;;5.73;;
5379;SDS011;2713;42.680;23.310;2022-07-12T05:01:54;8.00;;;5.77;;
5379;SDS011;2713;42.680;23.310;2022-07-12T05:04:21;6.30;;;5.53;;
5379;SDS011;2713;42.680;23.310;2022-07-12T05:06:49;7.60;;;6.23;;
5379;SDS011;2713;42.680;23.310;2022-07-12T05:09:17;7.97;;;5.90;;
5379;SDS011;2713;42.680;23.310;2022-07-12T05:11:44;8.93;;;5.77;;
5379;SDS011;2713;42.680;23.310;2022-07-12T05:14:11;6.43;;;5.73;;
5379;SDS011;2713;42.680;23.310;2022-07-12T05:16:38;6.87;;;5.80;;
5379;SDS011;2713;42.680;23.310;2022-07-12T05:19:05;6.57;;;5.60;;
5379;SDS011;2713;42.680;23.310;2022-07-12T05:21:32;6.53;;;5.80;;
5379;SDS011;2713;42.680;23.310;2022-07-12T05:24:02;6.07;;;5.27;;
5379;SDS011;2713;42.680;23.310;2022-07-12T05:26:29;7.47;;;5.80;;
5379;SDS011;2713;42.680;23.310;2022-07-12T05:28:56;9.90;;;5.70;;
5379;SDS011;2713;42.680;23.310;2022-07-12T05:31:23;5.73;;;5.23;;
5379;SDS011;2713;42.680;23.310;2022-07-12T05:33:50;6.00;;;5.50;;
5379;SDS011;2713;42.680;23.310;2022-07-12T05:36:18;7.57;;;6.17;;
5379;SDS011;2713;42.680;23.310;2022-07-12T05:38:45;23.63;;;5.77;;
5379;SDS011;2713;42.680;23.310;2022-07-12T05:41:13;6.63;;;5.83;;
5379;SDS011;2713;42.680;23.310;2022-07-12T05:43:40;9.37;;;5.70;;
5379;SDS011;2713;42.680;23.310;2022-07-12T05:46:09;6.90;;;6.20;;
5379;SDS011;2713;42.680;23.310;2022-07-12T05:48:36;6.90;;;6.20;;
5379;SDS011;2713;42.680;23.310;2022-07-12T05:51:03;10.73;;;6.20;;
5379;SDS011;2713;42.680;23.310;2022-07-12T05:53:44;6.97;;;6.30;;
5379;SDS011;2713;42.680;23.310;2022-07-12T05:56:12;12.07;;;6.10;;
5379;SDS011;2713;42.680;23.310;2022-07-12T05:58:40;6.33;;;5.13;;
5379;SDS011;2713;42.680;23.310;2022-07-12T06:01:07;8.70;;;5.37;;
5379;SDS011;2713;42.680;23.310;2022-07-12T06:03:34;8.30;;;5.00;;
5379;SDS011;2713;42.680;23.310;2022-07-12T06:06:01;7.63;;;4.57;;
5379;SDS011;2713;42.680;23.310;2022-07-12T06:08:28;6.20;;;4.73;;
5379;SDS011;2713;42.680;23.310;2022-07-12T06:10:55;5.30;;;4.50;;
5379;SDS011;2713;42.680;23.310;2022-07-12T06:13:24;8.10;;;5.00;;
5379;SDS011;2713;42.680;23.310;2022-07-12T06:15:51;6.63;;;4.73;;
5379;SDS011;2713;42.680;23.310;2022-07-12T06:18:18;6.77;;;4.80;;
5379;SDS011;2713;42.680;23.310;2022-07-12T06:20:44;6.00;;;4.90;;
5379;SDS011;2713;42.680;23.310;2022-07-12T06:23:11;6.90;;;3.80;;
5379;SDS011;2713;42.680;23.310;2022-07-12T06:25:38;4.63;;;4.07;;
5379;SDS011;2713;42.680;23.310;2022-07-12T06:28:06;3.53;;;3.10;;
5379;SDS011;2713;42.680;23.310;2022-07-12T06:30:34;3.40;;;3.07;;
5379;SDS011;2713;42.680;23.310;2022-07-12T06:33:01;7.23;;;3.70;;
5379;SDS011;2713;42.680;23.310;2022-07-12T06:35:28;4.53;;;3.43;;
5379;SDS011;2713;42.680;23.310;2022-07-12T06:37:55;4.90;;;3.47;;
5379;SDS011;2713;42.680;23.310;2022-07-12T06:40:22;5.50;;;3.53;;
5379;SDS011;2713;42.680;23.310;2022-07-12T06:42:49;4.20;;;3.60;;
5379;SDS011;2713;42.680;23.310;2022-07-12T06:45:16;5.13;;;3.77;;
5379;SDS011;2713;42.680;23.310;2022-07-12T06:47:45;5.47;;;3.80;;
5379;SDS011;2713;42.680;23.310;2022-07-12T06:50:11;4.83;;;3.97;;
5379;SDS011;2713;42.680;23.310;2022-07-12T06:52:38;7.50;;;3.67;;
5379;SDS011;2713;42.680;23.310;2022-07-12T06:55:06;5.50;;;3.63;;
5379;SDS011;2713;42.680;23.310;2022-07-12T06:57:34;7.17;;;3.77;;
5379;SDS011;2713;42.680;23.310;2022-07-12T07:00:03;7.07;;;3.80;;
5379;SDS011;2713;42.680;23.310;2022-07-12T07:02:30;4.30;;;3.80;;
5379;SDS011;2713;42.680;23.310;2022-07-12T07:04:59;3.97;;;3.37;;
5379;SDS011;2713;42.680;23.310;2022-07-12T07:07:26;3.60;;;3.30;;
5379;SDS011;2713;42.680;23.310;2022-07-12T07:09:53;3.87;;;3.20;;
5379;SDS011;2713;42.680;23.310;2022-07-12T07:12:20;5.10;;;3.10;;
5379;SDS011;2713;42.680;23.310;2022-07-12T07:14:46;3.27;;;3.07;;
5379;SDS011;2713;42.680;23.310;2022-07-12T07:17:14;3.30;;;2.90;;
5379;SDS011;2713;42.680;23.310;2022-07-12T07:19:42;6.87;;;4.00;;
5379;SDS011;2713;42.680;23.310;2022-07-12T07:22:11;3.80;;;3.40;;
5379;SDS011;2713;42.680;23.310;2022-07-12T07:24:38;3.93;;;3.07;;
5379;SDS011;2713;42.680;23.310;2022-07-12T07:27:05;3.50;;;3.07;;
5379;SDS011;2713;42.680;23.310;2022-07-12T07:29:32;5.00;;;2.70;;
5379;SDS011;2713;42.680;23.310;2022-07-12T07:32:16;2.70;;;2.17;;
5379;SDS011;2713;42.680;23.310;2022-07-12T07:34:43;2.60;;;2.40;;
5379;SDS011;2713;42.680;23.310;2022-07-12T07:37:11;3.20;;;2.90;;
5379;SDS011;2713;42.680;23.310;2022-07-12T07:39:39;3.53;;;2.17;;
5379;SDS011;2713;42.680;23.310;2022-07-12T07:42:06;2.70;;;2.07;;
5379;SDS011;2713;42.680;23.310;2022-07-12T07:44:33;4.80;;;2.30;;
5379;SDS011;2713;42.680;23.310;2022-07-12T07:47:00;2.40;;;2.20;;
5379;SDS011;2713;42.680;23.310;2022-07-12T07:49:27;3.87;;;2.60;;
5379;SDS011;2713;42.680;23.310;2022-07-12T07:51:54;4.03;;;2.67;;
5379;SDS011;2713;42.680;23.310;2022-07-12T07:54:22;3.23;;;2.80;;
5379;SDS011;2713;42.680;23.310;2022-07-12T07:56:49;3.63;;;2.47;;
5379;SDS011;2713;42.680;23.310;2022-07-12T07:59:15;2.60;;;2.40;;
5379;SDS011;2713;42.680;23.310;2022-07-12T08:01:42;4.90;;;2.00;;
5379;SDS011;2713;42.680;23.310;2022-07-12T08:04:10;3.87;;;2.10;;
5379;SDS011;2713;42.680;23.310;2022-07-12T08:06:38;2.70;;;2.10;;
5379;SDS011;2713;42.680;23.310;2022-07-12T08:09:05;2.80;;;1.87;;
5379;SDS011;2713;42.680;23.310;2022-07-12T08:11:33;2.07;;;1.87;;
5379;SDS011;2713;42.680;23.310;2022-07-12T08:14:01;2.00;;;1.90;;
5379;SDS011;2713;42.680;23.310;2022-07-12T08:16:28;4.37;;;2.00;;
5379;SDS011;2713;42.680;23.310;2022-07-12T08:18:55;2.10;;;2.00;;
5379;SDS011;2713;42.680;23.310;2022-07-12T08:21:23;2.40;;;2.00;;
5379;SDS011;2713;42.680;23.310;2022-07-12T08:23:50;3.60;;;2.13;;
5379;SDS011;2713;42.680;23.310;2022-07-12T08:26:18;2.20;;;2.00;;
5379;SDS011;2713;42.680;23.310;2022-07-12T08:28:46;4.23;;;2.00;;
5379;SDS011;2713;42.680;23.310;2022-07-12T08:31:13;3.30;;;2.00;;
5379;SDS011;2713;42.680;23.310;2022-07-12T08:33:40;3.40;;;2.33;;
5379;SDS011;2713;42.680;23.310;2022-07-12T08:36:08;2.50;;;2.30;;
5379;SDS011;2713;42.680;23.310;2022-07-12T08:38:36;5.73;;;2.40;;
5379;SDS011;2713;42.680;23.310;2022-07-12T08:41:04;4.27;;;2.60;;
5379;SDS011;2713;42.680;23.310;2022-07-12T08:43:33;3.93;;;2.60;;
5379;SDS011;2713;42.680;23.310;2022-07-12T08:46:06;2.13;;;1.70;;
5379;SDS011;2713;42.680;23.310;2022-07-12T08:48:34;2.50;;;1.90;;
5379;SDS011;2713;42.680;23.310;2022-07-12T08:51:02;3.00;;;2.23;;
5379;SDS011;2713;42.680;23.310;2022-07-12T08:53:30;2.30;;;2.10;;
5379;SDS011;2713;42.680;23.310;2022-07-12T08:55:57;3.73;;;1.83;;
5379;SDS011;2713;42.680;23.310;2022-07-12T08:58:24;3.30;;;1.93;;
5379;SDS011;2713;42.680;23.310;2022-07-12T09:00:51;2.33;;;1.67;;
5379;SDS011;2713;42.680;23.310;2022-07-12T09:03:20;4.77;;;1.83;;
5379;SDS011;2713;42.680;23.310;2022-07-12T09:05:47;3.97;;;1.80;;
5379;SDS011;2713;42.680;23.310;2022-07-12T09:08:17;6.60;;;1.87;;
5379;SDS011;2713;42.680;23.310;2022-07-12T09:10:53;2.80;;;2.60;;
5379;SDS011;2713;42.680;23.310;2022-07-12T09:13:44;4.10;;;2.50;;
5379;SDS011;2713;42.680;23.310;2022-07-12T09:16:17;2.20;;;2.00;;
5379;SDS011;2713;42.680;23.310;2022-07-12T09:18:47;2.70;;;2.00;;
5379;SDS011;2713;42.680;23.310;2022-07-12T09:21:20;2.13;;;1.50;;
5379;SDS011;2713;42.680;23.310;2022-07-12T09:23:52;1.83;;;1.73;;
5379;SDS011;2713;42.680;23.310;2022-07-12T09:26:20;5.03;;;1.70;;
5379;SDS011;2713;42.680;23.310;2022-07-12T09:28:49;2.30;;;2.10;;
5379;SDS011;2713;42.680;23.310;2022-07-12T09:31:17;2.70;;;1.80;;
5379;SDS011;2713;42.680;23.310;2022-07-12T09:36:38;2.90;;;1.77;;
5379;SDS011;2713;42.680;23.310;2022-07-12T09:39:04;1.67;;;1.57;;
5379;SDS011;2713;42.680;23.310;2022-07-12T09:41:31;3.63;;;1.70;;
5379;SDS011;2713;42.680;23.310;2022-07-12T09:43:59;2.70;;;1.60;;
5379;SDS011;2713;42.680;23.310;2022-07-12T09:46:27;3.83;;;1.60;;
5379;SDS011;2713;42.680;23.310;2022-07-12T09:48:54;3.67;;;1.67;;
5379;SDS011;2713;42.680;23.310;2022-07-12T09:51:21;1.93;;;1.70;;
5379;SDS011;2713;42.680;23.310;2022-07-12T09:53:51;2.63;;;1.40;;
5379;SDS011;2713;42.680;23.310;2022-07-12T09:56:19;1.80;;;1.70;;
5379;SDS011;2713;42.680;23.310;2022-07-12T09:58:51;2.20;;;1.40;;
5379;SDS011;2713;42.680;23.310;2022-07-12T10:01:19;1.60;;;1.33;;
5379;SDS011;2713;42.680;23.310;2022-07-12T10:03:46;3.43;;;1.90;;
5379;SDS011;2713;42.680;23.310;2022-07-12T10:06:16;1.67;;;1.50;;
5379;SDS011;2713;42.680;23.310;2022-07-12T10:08:52;1.83;;;1.40;;
5379;SDS011;2713;42.680;23.310;2022-07-12T10:11:20;2.60;;;1.60;;
5379;SDS011;2713;42.680;23.310;2022-07-12T10:13:48;3.30;;;1.47;;
5379;SDS011;2713;42.680;23.310;2022-07-12T10:16:15;1.87;;;1.60;;
5379;SDS011;2713;42.680;23.310;2022-07-12T10:19:01;1.67;;;1.33;;
5379;SDS011;2713;42.680;23.310;2022-07-12T10:21:48;3.90;;;1.87;;
5379;SDS011;2713;42.680;23.310;2022-07-12T10:27:27;2.90;;;1.43;;
5379;SDS011;2713;42.680;23.310;2022-07-12T10:30:11;2.30;;;1.50;;
5379;SDS011;2713;42.680;23.310;2022-07-12T10:32:41;3.10;;;1.73;;
5379;SDS011;2713;42.680;23.310;2022-07-12T10:35:13;2.50;;;1.60;;
5379;SDS011;2713;42.680;23.310;2022-07-12T10:37:46;2.37;;;2.20;;
5379;SDS011;2713;42.680;23.310;2022-07-12T10:40:47;1.97;;;1.73;;
5379;SDS011;2713;42.680;23.310;2022-07-12T10:43:22;3.80;;;2.07;;
5379;SDS011;2713;42.680;23.310;2022-07-12T10:46:05;1.63;;;1.53;;
5379;SDS011;2713;42.680;23.310;2022-07-12T10:48:40;3.67;;;1.90;;
5379;SDS011;2713;42.680;23.310;2022-07-12T10:51:13;3.77;;;1.67;;
5379;SDS011;2713;42.680;23.310;2022-07-12T10:53:41;2.37;;;1.50;;
5379;SDS011;2713;42.680;23.310;2022-07-12T10:56:21;2.10;;;2.00;;
5379;SDS011;2713;42.680;23.310;2022-07-12T10:58:51;1.97;;;1.80;;
5379;SDS011;2713;42.680;23.310;2022-07-12T11:01:19;2.47;;;1.90;;
5379;SDS011;2713;42.680;23.310;2022-07-12T11:03:47;2.00;;;1.50;;
5379;SDS011;2713;42.680;23.310;2022-07-12T11:06:16;3.27;;;2.00;;
5379;SDS011;2713;42.680;23.310;2022-07-12T11:08:48;1.77;;;1.67;;
5379;SDS011;2713;42.680;23.310;2022-07-12T11:11:16;2.23;;;1.90;;
5379;SDS011;2713;42.680;23.310;2022-07-12T11:13:44;2.13;;;2.00;;
5379;SDS011;2713;42.680;23.310;2022-07-12T11:16:11;4.27;;;2.00;;
5379;SDS011;2713;42.680;23.310;2022-07-12T11:18:38;4.93;;;2.00;;
5379;SDS011;2713;42.680;23.310;2022-07-12T11:21:05;4.00;;;1.97;;
5379;SDS011;2713;42.680;23.310;2022-07-12T11:23:32;3.27;;;2.40;;
5379;SDS011;2713;42.680;23.310;2022-07-12T11:26:00;2.97;;;2.47;;
5379;SDS011;2713;42.680;23.310;2022-07-12T11:28:28;3.20;;;2.17;;
5379;SDS011;2713;42.680;23.310;2022-07-12T11:31:07;2.50;;;2.27;;
5379;SDS011;2713;42.680;23.310;2022-07-12T11:33:37;3.27;;;2.30;;
5379;SDS011;2713;42.680;23.310;2022-07-12T11:36:05;3.63;;;2.40;;
5379;SDS011;2713;42.680;23.310;2022-07-12T11:38:34;5.53;;;2.70;;
5379;SDS011;2713;42.680;23.310;2022-07-12T11:41:02;3.10;;;2.50;;
5379;SDS011;2713;42.680;23.310;2022-07-12T11:43:30;2.60;;;2.40;;
5379;SDS011;2713;42.680;23.310;2022-07-12T11:45:58;2.10;;;1.90;;
5379;SDS011;2713;42.680;23.310;2022-07-12T11:48:28;2.30;;;2.10;;
5379;SDS011;2713;42.680;23.310;2022-07-12T11:50:59;2.50;;;2.30;;
5379;SDS011;2713;42.680;23.310;2022-07-12T11:53:28;4.30;;;2.13;;
5379;SDS011;2713;42.680;23.310;2022-07-12T11:55:57;2.10;;;2.00;;
5379;SDS011;2713;42.680;23.310;2022-07-12T11:58:25;2.20;;;2.00;;
5379;SDS011;2713;42.680;23.310;2022-07-12T12:00:53;4.17;;;1.90;;
5379;SDS011;2713;42.680;23.310;2022-07-12T12:03:21;2.53;;;2.00;;
5379;SDS011;2713;42.680;23.310;2022-07-12T12:05:51;4.40;;;2.07;;
5379;SDS011;2713;42.680;23.310;2022-07-12T12:08:25;2.27;;;2.00;;
5379;SDS011;2713;42.680;23.310;2022-07-12T12:10:57;2.70;;;2.10;;
5379;SDS011;2713;42.680;23.310;2022-07-12T12:13:25;4.20;;;2.10;;
5379;SDS011;2713;42.680;23.310;2022-07-12T12:15:55;2.30;;;2.03;;
5379;SDS011;2713;42.680;23.310;2022-07-12T12:18:30;2.30;;;1.80;;
5379;SDS011;2713;42.680;23.310;2022-07-12T12:21:01;7.03;;;1.90;;
5379;SDS011;2713;42.680;23.310;2022-07-12T12:23:29;3.70;;;2.37;;
5379;SDS011;2713;42.680;23.310;2022-07-12T12:26:09;4.10;;;1.90;;
5379;SDS011;2713;42.680;23.310;2022-07-12T12:28:40;2.00;;;1.90;;
5379;SDS011;2713;42.680;23.310;2022-07-12T12:31:08;2.33;;;2.00;;
5379;SDS011;2713;42.680;23.310;2022-07-12T12:33:36;2.20;;;2.00;;
5379;SDS011;2713;42.680;23.310;2022-07-12T12:36:12;3.03;;;2.10;;
5379;SDS011;2713;42.680;23.310;2022-07-12T12:38:47;3.07;;;2.83;;
5379;SDS011;2713;42.680;23.310;2022-07-12T12:41:15;2.30;;;2.20;;
5379;SDS011;2713;42.680;23.310;2022-07-12T12:43:42;3.07;;;1.60;;
5379;SDS011;2713;42.680;23.310;2022-07-12T12:46:10;2.20;;;2.00;;
5379;SDS011;2713;42.680;23.310;2022-07-12T12:48:37;2.23;;;2.07;;
5379;SDS011;2713;42.680;23.310;2022-07-12T12:51:14;2.27;;;1.90;;
5379;SDS011;2713;42.680;23.310;2022-07-12T12:53:41;1.90;;;1.80;;
5379;SDS011;2713;42.680;23.310;2022-07-12T12:56:09;2.30;;;1.97;;
5379;SDS011;2713;42.680;23.310;2022-07-12T12:58:37;2.13;;;2.00;;
5379;SDS011;2713;42.680;23.310;2022-07-12T13:01:05;3.10;;;2.40;;
5379;SDS011;2713;42.680;23.310;2022-07-12T13:03:32;5.33;;;2.03;;
5379;SDS011;2713;42.680;23.310;2022-07-12T13:05:59;2.13;;;2.00;;
5379;SDS011;2713;42.680;23.310;2022-07-12T13:08:28;5.83;;;4.60;;
5379;SDS011;2713;42.680;23.310;2022-07-12T13:10:55;1.90;;;1.80;;
5379;SDS011;2713;42.680;23.310;2022-07-12T13:13:39;2.40;;;2.23;;
5379;SDS011;2713;42.680;23.310;2022-07-12T13:16:06;2.40;;;2.20;;
5379;SDS011;2713;42.680;23.310;2022-07-12T13:18:33;2.33;;;2.13;;
5379;SDS011;2713;42.680;23.310;2022-07-12T13:21:00;2.47;;;2.10;;
5379;SDS011;2713;42.680;23.310;2022-07-12T13:23:29;2.00;;;1.90;;
5379;SDS011;2713;42.680;23.310;2022-07-12T13:25:55;3.20;;;1.90;;
5379;SDS011;2713;42.680;23.310;2022-07-12T13:28:22;2.40;;;2.20;;
5379;SDS011;2713;42.680;23.310;2022-07-12T13:30:49;1.93;;;1.80;;
5379;SDS011;2713;42.680;23.310;2022-07-12T13:33:20;2.87;;;2.00;;
5379;SDS011;2713;42.680;23.310;2022-07-12T13:35:47;2.93;;;2.23;;
5379;SDS011;2713;42.680;23.310;2022-07-12T13:38:14;2.07;;;1.70;;
5379;SDS011;2713;42.680;23.310;2022-07-12T13:40:42;2.60;;;2.40;;
5379;SDS011;2713;42.680;23.310;2022-07-12T13:43:09;2.27;;;2.07;;
5379;SDS011;2713;42.680;23.310;2022-07-12T13:45:36;2.80;;;2.60;;
5379;SDS011;2713;42.680;23.310;2022-07-12T13:48:03;5.40;;;4.53;;
5379;SDS011;2713;42.680;23.310;2022-07-12T13:50:30;1.90;;;1.80;;
5379;SDS011;2713;42.680;23.310;2022-07-12T13:52:57;2.20;;;2.10;;
5379;SDS011;2713;42.680;23.310;2022-07-12T13:55:25;5.13;;;2.27;;
5379;SDS011;2713;42.680;23.310;2022-07-12T13:57:54;1.80;;;1.70;;
5379;SDS011;2713;42.680;23.310;2022-07-12T14:00:21;3.30;;;2.40;;
5379;SDS011;2713;42.680;23.310;2022-07-12T14:02:48;2.70;;;2.50;;
5379;SDS011;2713;42.680;23.310;2022-07-12T14:05:16;4.00;;;2.30;;
5379;SDS011;2713;42.680;23.310;2022-07-12T14:07:45;3.37;;;2.20;;
5379;SDS011;2713;42.680;23.310;2022-07-12T14:10:13;2.17;;;1.97;;
5379;SDS011;2713;42.680;23.310;2022-07-12T14:12:40;2.13;;;2.03;;
5379;SDS011;2713;42.680;23.310;2022-07-12T14:15:09;4.10;;;3.70;;
5379;SDS011;2713;42.680;23.310;2022-07-12T14:18:01;3.20;;;2.30;;
5379;SDS011;2713;42.680;23.310;2022-07-12T14:20:29;3.23;;;3.03;;
5379;SDS011;2713;42.680;23.310;2022-07-12T14:22:56;2.63;;;2.43;;
5379;SDS011;2713;42.680;23.310;2022-07-12T14:25:23;2.63;;;2.43;;
5379;SDS011;2713;42.680;23.310;2022-07-12T14:27:50;2.53;;;2.20;;
5379;SDS011;2713;42.680;23.310;2022-07-12T14:30:18;3.90;;;2.20;;
5379;SDS011;2713;42.680;23.310;2022-07-12T14:32:46;3.43;;;1.87;;
5379;SDS011;2713;42.680;23.310;2022-07-12T14:35:13;4.00;;;2.07;;
5379;SDS011;2713;42.680;23.310;2022-07-12T14:37:40;2.70;;;2.50;;
5379;SDS011;2713;42.680;23.310;2022-07-12T14:40:07;3.67;;;2.20;;
5379;SDS011;2713;42.680;23.310;2022-07-12T14:42:35;2.50;;;2.30;;
5379;SDS011;2713;42.680;23.310;2022-07-12T14:45:03;5.23;;;2.53;;
5379;SDS011;2713;42.680;23.310;2022-07-12T14:47:31;3.63;;;2.57;;
5379;SDS011;2713;42.680;23.310;2022-07-12T14:49:58;1.97;;;1.80;;
5379;SDS011;2713;42.680;23.310;2022-07-12T14:52:26;7.33;;;2.00;;
5379;SDS011;2713;42.680;23.310;2022-07-12T14:54:53;10.57;;;2.90;;
5379;SDS011;2713;42.680;23.310;2022-07-12T14:57:21;3.07;;;2.10;;
5379;SDS011;2713;42.680;23.310;2022-07-12T14:59:47;2.87;;;2.30;;
5379;SDS011;2713;42.680;23.310;2022-07-12T15:02:14;2.17;;;1.97;;
5379;SDS011;2713;42.680;23.310;2022-07-12T15:04:43;3.33;;;2.20;;
5379;SDS011;2713;42.680;23.310;2022-07-12T15:07:10;2.10;;;1.90;;
5379;SDS011;2713;42.680;23.310;2022-07-12T15:09:37;1.97;;;1.87;;
5379;SDS011;2713;42.680;23.310;2022-07-12T15:12:04;3.40;;;2.10;;
5379;SDS011;2713;42.680;23.310;2022-07-12T15:14:31;7.93;;;2.40;;